Syracuse, NY (13209)

3:48 AM EST on December 25, 2014 (GMT -0500)
Liverpool Public Library | Change Station
CLOSE
Current Station
Personal Weather Station
Location: Liverpool, NY
Elevation: 420 ft
Nearby Weather Stations
Active Advisory: Wind Advisory Active Notice: Record Report

Elev 420 ft 43.10 °N, 76.21 °W | Updated 3 minutes ago

Overcast
Overcast
51.0 °F
Feels Like 51.0 °F
N
14.0
Wind Variable Wind from WSW
Gusts 27.0 mph

Today
High -- | Low -- °F
--% Chance of Precip.
Yesterday
High -- | Low -- °F
Precip. -- in
7:35 AM 4:35 PM
Waxing Crescent, 14% visible
Pressure 29.42 in
Visibility 10.0 miles
Clouds Mostly Cloudy 5500 ft
Mostly Cloudy 7500 ft
Overcast 9000 ft
Dew Point 38 °F
Humidity 62%
Rainfall 0.02 in
Snow Depth Not available.
UV 0 out of 12
Pollen .10 out of 12
Air Quality Not available.
Flu Activity Not available.
METAR KSYR 250754Z 22019G30KT 10SM -RA BKN055 BKN075 OVC090 11/05 A2943 RMK AO2 PK WND 22034/0742 SLP963 P0001 T01110050 $

More Conditions Fewer Conditions

Pressure 29.42 in
Visibility 10.0 miles
Clouds Mostly Cloudy 5500 ft
Mostly Cloudy 7500 ft
Overcast 9000 ft
Dew Point 38 °F
Humidity 62%
Rainfall 0.02 in
Snow Depth Not available.
UV 0 out of 12
Pollen .10 out of 12
Air Quality Not available.
Flu Activity Not available.
METAR KSYR 250754Z 22019G30KT 10SM -RA BKN055 BKN075 OVC090 11/05 A2943 RMK AO2 PK WND 22034/0742 SLP963 P0001 T01110050 $

More Conditions Fewer Conditions

10-Day Weather Forecast

Almanac

Astronomy

Dec. 25, 2014 Rise Set
Actual Time
Civil Twilight
Nautical Twilight
Astronomical Twilight
Moon
Length of Visible Light
Length of Day
Tomorrow will be .
, % of the Moon is Illuminated

Today's Extremes

State Highs State Lows

Community

WunderPhotos

Upload Photos

1,780,250 photos uploaded!

WunderBlogs® & News

Nearby

Air Quality

  Air Quality AQ Index Pollutant
Not available.

Snow Depth

Station Depth Elevation

Earthquake Activity

City Distance Mag. Time & Date
Minimum magnitude displayed is 2.5.

Coastal Water Temperatures

Place Temperature

Nearby Weather Stations